Skip Navigation Links
NOAA logo - Click to go to the NOAA homepage
NOAA's National Weather Service
Alaska Aviation Weather Unit
  NWS logo - Click to go to the NWS homepage
Left Navbar Graphic     19 AKDT = 03 GMT

   
NOAA is celebrating 200 years of science, service, and stewardship. Visit the NOAA 200th celebration Web site to learn more.
USA.gov is the U.S. Government's official Web portal to all Federal, state and local government Web resources and services.
Facebook
NWS on Facebook

Important Change Regarding the AAWU Web Presence

 

Over the last several months, the AAWU has been working to navigate its webpages to a nationally supported server. Security, as well as other needs, have necessitated the change.  In the process, we have made an effort to enhance the functionality of our website, as well as some of our products. As of June 20, 2017, aawu.arh.noaa.gov will be discontinued. The new AAWU web address is weather.gov/aawu. It is now live and will run in-parallel with the old site until it is discontinued. Please send any feedback or questions regarding the new webpages to nws.ar.aawu.webauthors@noaa.gov.  Thank you for your patience during this time of transition.
AAWU Home :: Display TAF Add Bookmark
TAF PAOM 250057Z 2501/2524 24018KT 6SM -SHRA BR OVC010
     FM250800 20016G25KT 3SM -RASN BR OVC010
     FM251800 20018G24KT 1 1/2SM -RASN BR OVC010=
METAR PAOM 242151Z 19009KT 10SM SCT004 OVC011 04/04 A2944=

METAR PAOM 242153Z 19009KT 10SM SCT004 OVC011 04/04 A2944=

PAOM 242227Z 23016KT 1 1/2SM R28/2600VP6000FT BR FEW004 OVC011
04/04 A2945=

SPECI PAOM 242227Z 23016KT 1 1/2SM R28/2600VP6000FT BR FEW004 OVC011
 04/04 A2945 RMK AO2 T00440044=

PAOM 242238Z 23019KT 3SM BR FEW004 OVC011 03/03 A2945=

PAOM 242238Z 23019KT 3SM BR FEW004 OVC011 03/03 A2945 RMK AO2
     T00330033=

METAR PAOM 242253Z 23017KT 10SM FEW004 OVC011 03/03 A2946=

PAOM 242314Z 22018KT 10SM BKN006 OVC011 03/02 A2947=

SPECI PAOM 242314Z 22018KT 10SM BKN006 OVC011 03/02 A2947 RMK AO2
     T00280022=

METAR PAOM 242353Z 24016KT 10SM BKN006 OVC011 03/02 A2949=

METAR PAOM 242355Z 24017KT 10SM OVC011 03/02 A2949=

METAR PAOM 250053Z 23021KT 10SM OVC013 03/02 A2951=

METAR PAOM 250153Z 24020KT 10SM OVC014 03/01 A2953=

METAR PAOM 250253Z 25020KT 10SM SCT010 BKN014 OVC036 02/01 A2956
     RMK PK WND 24027/0247 RAB06E17UPB36E46SNB04E06 SLP009 P0000
     60000 T00170006 53024 VIA AUTODIAL=


NOAA's National Weather Service
Alaska Aviation Weather Unit
6930 Sand Lake Road
Anchorage, AK 99502-1845
Disclaimer
Credits
Glossary
Privacy Policy
About Us
Career Opportunities
Contact AAWU Internet Services Site last modified: April, 17th 2012